createdAt,value
2019-01-23T00:03:41.309Z,49.33
2019-01-23T00:06:23.190Z,56.83
2019-01-23T00:12:21.139Z,55.77
2019-01-23T00:15:10.748Z,64.60
2019-01-23T00:17:52.537Z,53.90
2019-01-23T00:20:42.071Z,60.00
2019-01-23T00:23:24.448Z,51.77
2019-01-23T00:26:14.008Z,55.87
2019-01-23T00:29:03.527Z,54.00
2019-01-23T00:31:45.594Z,62.80
2019-01-23T00:37:56.731Z,58.57
2019-01-23T00:40:39.441Z,63.33
2019-01-23T00:43:29.068Z,58.43
2019-01-23T00:46:11.167Z,62.43
2019-01-23T00:49:03.056Z,51.83
2019-01-23T00:51:45.835Z,58.77
2019-01-23T00:54:35.489Z,54.27
2019-01-23T00:57:17.831Z,53.20
2019-01-23T01:03:36.737Z,53.63
2019-01-23T01:06:26.301Z,48.83
2019-01-23T01:09:09.659Z,52.33
2019-01-23T01:11:59.497Z,51.83
2019-01-23T01:14:41.801Z,52.97
2019-01-23T01:17:31.399Z,47.80
2019-01-23T01:20:13.905Z,53.80
2019-01-23T01:23:03.523Z,54.40
2019-01-23T01:28:47.878Z,54.27
2019-01-23T01:34:32.184Z,50.30
2019-01-23T01:37:14.548Z,52.43
2019-01-23T01:43:13.018Z,52.90
2019-01-23T01:46:02.573Z,61.47
2019-01-23T01:51:52.534Z,48.53
2019-01-23T01:54:34.392Z,54.70
2019-01-23T01:58:03.335Z,54.33
2019-01-23T02:00:52.848Z,52.27
2019-01-23T02:03:42.385Z,57.40
2019-01-23T02:06:24.877Z,54.43
2019-01-23T02:09:14.426Z,60.13
2019-01-23T02:11:56.865Z,50.00
2019-01-23T02:14:46.537Z,51.27
2019-01-23T02:17:31.096Z,51.40
2019-01-23T02:23:35.951Z,49.43
2019-01-23T02:26:25.507Z,49.37
2019-01-23T02:29:09.620Z,55.63
2019-01-23T02:31:52.127Z,54.27
2019-01-23T02:34:38.409Z,52.27
2019-01-23T02:40:23.640Z,50.83
2019-01-23T02:46:13.731Z,51.57
2019-01-23T02:48:55.454Z,54.80
2019-01-23T02:51:45.033Z,53.67
2019-01-23T02:54:27.273Z,56.93
2019-01-23T03:00:24.683Z,49.97
2019-01-23T03:03:14.256Z,56.17
2019-01-23T03:05:56.781Z,52.87
2019-01-23T03:08:46.258Z,55.40
2019-01-23T03:11:28.750Z,57.73
2019-01-23T03:14:18.432Z,55.73
2019-01-23T03:17:00.302Z,56.20
2019-01-23T03:22:44.637Z,54.70
2019-01-23T03:25:39.522Z,54.53
2019-01-23T03:28:23.399Z,56.33
2019-01-23T03:31:05.875Z,50.43
2019-01-23T03:33:55.523Z,61.10
2019-01-23T03:36:37.965Z,58.87
2019-01-23T03:42:33.837Z,58.97
2019-01-23T03:48:24.649Z,48.10
2019-01-23T03:51:07.788Z,56.83
2019-01-23T03:53:59.396Z,57.23
2019-01-23T03:56:41.474Z,53.43
2019-01-23T03:59:32.328Z,58.30
2019-01-23T04:02:15.960Z,56.93
2019-01-23T04:08:14.609Z,52.60
2019-01-23T04:11:04.152Z,51.50
2019-01-23T04:13:54.027Z,50.63
2019-01-23T04:16:35.769Z,53.87
2019-01-23T04:19:25.298Z,54.97
2019-01-23T04:22:07.395Z,52.50
2019-01-23T04:24:56.915Z,54.60
2019-01-23T04:27:39.186Z,56.93
2019-01-23T04:30:47.686Z,53.57
2019-01-23T04:33:37.386Z,50.00
2019-01-23T04:36:19.824Z,51.80
2019-01-23T04:39:09.812Z,65.73
2019-01-23T04:41:52.464Z,53.80
2019-01-23T04:44:42.000Z,62.70
2019-01-23T04:47:23.997Z,63.20
2019-01-23T04:50:53.454Z,60.03
2019-01-23T04:53:38.807Z,52.67
2019-01-23T04:56:47.413Z,57.13
2019-01-23T04:59:29.239Z,54.47
2019-01-23T05:05:11.299Z,51.40
2019-01-23T05:14:17.908Z,47.40
2019-01-23T05:17:00.394Z,48.10
2019-01-23T05:19:49.983Z,58.23
2019-01-23T05:22:32.674Z,76.13
2019-01-23T05:28:10.192Z,69.43
2019-01-23T05:30:59.796Z,70.80
2019-01-23T05:33:41.694Z,80.73
2019-01-23T05:36:31.216Z,76.37
2019-01-23T05:39:13.468Z,68.40
2019-01-23T05:42:21.896Z,75.23
2019-01-23T05:45:04.094Z,77.20
2019-01-23T05:51:02.630Z,83.67
2019-01-23T05:53:52.193Z,74.57
2019-01-23T05:56:34.402Z,81.83
2019-01-23T05:59:23.964Z,77.97
2019-01-23T06:02:06.577Z,73.33
2019-01-23T06:08:06.823Z,82.00
2019-01-23T06:10:56.477Z,86.30
2019-01-23T06:13:38.353Z,81.07
2019-01-23T06:16:27.909Z,82.50
2019-01-23T06:19:10.248Z,84.17
2019-01-23T06:22:12.297Z,84.10
2019-01-23T06:24:44.147Z,82.40
2019-01-23T06:30:35.126Z,81.90
2019-01-23T06:33:24.702Z,93.47
2019-01-23T06:36:07.085Z,83.80
2019-01-23T06:38:56.684Z,84.80
2019-01-23T06:41:39.198Z,78.80
2019-01-23T06:47:21.487Z,83.73
2019-01-23T06:50:14.012Z,88.53
2019-01-23T06:53:03.550Z,85.60
2019-01-23T06:55:53.114Z,88.27
2019-01-23T06:58:42.800Z,94.37
2019-01-23T07:04:18.778Z,81.23
2019-01-23T07:16:27.121Z,81.57
2019-01-23T07:19:16.655Z,95.20
2019-01-23T07:21:58.981Z,87.87
2019-01-23T07:27:55.184Z,84.33
2019-01-23T07:33:45.857Z,99.30
2019-01-23T07:36:28.614Z,97.73
2019-01-23T07:42:12.050Z,97.63
2019-01-23T07:48:03.877Z,95.70
2019-01-23T07:51:32.813Z,89.87
2019-01-23T07:54:15.428Z,89.97
2019-01-23T07:57:04.945Z,86.33
2019-01-23T07:59:47.674Z,100.50
2019-01-23T08:05:44.008Z,91.53
2019-01-23T08:08:33.652Z,104.07
2019-01-23T08:11:42.049Z,97.33
2019-01-23T08:14:24.357Z,96.93
2019-01-23T08:20:02.785Z,101.93
2019-01-23T08:22:52.462Z,91.87
2019-01-23T08:25:35.084Z,88.00
2019-01-23T08:31:25.320Z,97.97
2019-01-23T08:34:07.887Z,82.60
2019-01-23T08:36:57.400Z,71.77
2019-01-23T08:39:40.971Z,79.10
2019-01-23T08:42:30.523Z,86.87
2019-01-23T08:45:13.207Z,84.07
2019-01-23T08:48:02.755Z,82.70
2019-01-23T08:56:54.547Z,77.10
2019-01-23T08:59:37.188Z,69.47
2019-01-23T09:02:26.711Z,73.20
2019-01-23T09:05:09.611Z,79.70
2019-01-23T09:07:59.150Z,67.73
2019-01-23T09:10:40.877Z,66.83
2019-01-23T09:13:30.444Z,68.60
2019-01-23T09:16:13.452Z,66.70
2019-01-23T09:19:02.980Z,62.43
2019-01-23T09:21:45.506Z,74.10
2019-01-23T09:24:35.044Z,71.47
2019-01-23T09:27:18.492Z,66.57
2019-01-23T09:30:00.478Z,58.97
2019-01-23T09:33:12.313Z,57.83
2019-01-23T09:36:39.929Z,64.87
2019-01-23T09:39:42.207Z,64.57
2019-01-23T09:49:48.590Z,57.53
2019-01-23T09:55:53.716Z,71.33
2019-01-23T09:58:35.683Z,70.43
2019-01-23T10:01:25.198Z,60.77
2019-01-23T10:04:10.133Z,59.67
2019-01-23T10:06:59.653Z,67.77
2019-01-23T10:09:41.641Z,63.93
2019-01-23T10:12:31.302Z,62.00
2019-01-23T10:15:14.838Z,55.53
2019-01-23T10:18:04.433Z,62.30
2019-01-23T10:20:53.997Z,63.27
2019-01-23T10:23:43.555Z,59.37
2019-01-23T10:26:26.609Z,64.17
2019-01-23T10:29:16.195Z,57.83
2019-01-23T10:31:58.518Z,63.03
2019-01-23T10:34:41.134Z,57.77
2019-01-23T10:37:30.716Z,64.63
2019-01-23T10:40:14.409Z,53.60
2019-01-23T10:46:11.718Z,53.80
2019-01-23T10:49:01.404Z,51.80
2019-01-23T10:51:43.730Z,51.80
2019-01-23T10:57:41.079Z,55.30
2019-01-23T11:03:26.867Z,58.00
2019-01-23T11:06:08.958Z,57.57
2019-01-23T11:08:58.483Z,60.73
2019-01-23T11:11:43.469Z,53.27
2019-01-23T11:14:33.021Z,54.00
2019-01-23T11:17:15.653Z,50.33
2019-01-23T11:20:25.718Z,52.40
2019-01-23T11:23:08.383Z,50.80
2019-01-23T11:25:57.898Z,46.40
2019-01-23T11:28:39.704Z,48.27
2019-01-23T11:31:48.286Z,42.87
2019-01-23T11:34:30.697Z,49.50
2019-01-23T11:37:20.246Z,45.77
2019-01-23T11:40:02.954Z,42.47
2019-01-23T11:42:52.491Z,47.97
2019-01-23T11:45:34.245Z,55.53
2019-01-23T11:48:23.893Z,51.03
2019-01-23T11:51:06.496Z,59.20
2019-01-23T11:56:48.676Z,56.17
2019-01-23T12:02:53.409Z,48.17
2019-01-23T12:05:35.692Z,45.23
2019-01-23T12:08:25.212Z,49.67
2019-01-23T12:11:07.558Z,45.47
2019-01-23T12:13:57.069Z,50.93
2019-01-23T12:16:39.082Z,49.93
2019-01-23T12:22:36.893Z,50.97
2019-01-23T12:25:26.445Z,45.67
2019-01-23T12:28:29.150Z,46.47
2019-01-23T12:30:59.852Z,45.43
2019-01-23T12:33:49.488Z,48.43
2019-01-23T12:36:31.981Z,41.90
2019-01-23T12:39:21.563Z,44.93
2019-01-23T12:42:04.124Z,45.97
2019-01-23T12:44:53.985Z,49.07
2019-01-23T12:47:35.779Z,42.53
2019-01-23T12:53:54.128Z,46.73
2019-01-23T12:56:43.663Z,43.17
2019-01-23T12:59:33.206Z,49.57
2019-01-23T13:02:14.877Z,40.47
2019-01-23T13:05:05.161Z,45.10
2019-01-23T13:07:47.924Z,48.13
2019-01-23T13:13:37.522Z,51.30
2019-01-23T13:16:19.244Z,49.03
2019-01-23T13:19:08.742Z,45.70
2019-01-23T13:21:50.861Z,47.23
2019-01-23T13:24:59.332Z,44.93
2019-01-23T13:27:41.651Z,52.87
2019-01-23T13:30:31.202Z,52.57
2019-01-23T13:33:20.771Z,49.97
2019-01-23T13:36:02.466Z,58.93
2019-01-23T13:38:52.048Z,43.53
2019-01-23T13:41:34.500Z,45.43
2019-01-23T13:44:24.022Z,42.93
2019-01-23T13:47:06.625Z,48.50
2019-01-23T13:49:56.177Z,47.90
2019-01-23T13:52:37.997Z,47.17
2019-01-23T13:58:41.583Z,42.03
2019-01-23T14:01:26.901Z,47.50
2019-01-23T14:04:09.566Z,41.40
2019-01-23T14:10:08.599Z,45.80
2019-01-23T14:15:46.905Z,41.10
2019-01-23T14:18:37.103Z,35.87
2019-01-23T14:21:19.813Z,36.50
2019-01-23T14:27:19.366Z,41.03
2019-01-23T14:33:45.190Z,43.60
2019-01-23T14:36:27.350Z,41.57
2019-01-23T14:39:16.900Z,41.83
2019-01-23T14:41:59.340Z,43.23
2019-01-23T14:44:48.892Z,37.97
2019-01-23T14:47:31.396Z,42.33
2019-01-23T14:51:00.359Z,40.37
2019-01-23T14:53:42.414Z,44.10
2019-01-23T14:56:31.972Z,42.47
2019-01-23T14:59:14.055Z,45.77
2019-01-23T15:05:10.731Z,49.00
2019-01-23T15:08:00.253Z,45.60
2019-01-23T15:10:49.826Z,49.53
2019-01-23T15:13:33.011Z,47.07
2019-01-23T15:16:22.504Z,43.33
2019-01-23T15:19:05.032Z,43.17
2019-01-23T15:21:54.555Z,39.20
2019-01-23T15:24:36.981Z,42.30
2019-01-23T15:27:26.560Z,39.27
2019-01-23T15:30:08.981Z,40.87
2019-01-23T15:32:59.290Z,42.70
2019-01-23T15:35:41.633Z,42.57
2019-01-23T15:41:32.510Z,40.90
2019-01-23T15:44:14.341Z,43.57
2019-01-23T15:47:03.897Z,45.87
2019-01-23T15:49:46.369Z,41.13
2019-01-23T15:52:35.877Z,38.80
2019-01-23T15:55:19.979Z,37.13
2019-01-23T15:58:09.629Z,40.57
2019-01-23T16:07:05.027Z,41.13
2019-01-23T16:10:08.998Z,44.10
2019-01-23T16:12:38.877Z,41.50
2019-01-23T16:15:21.503Z,45.03
2019-01-23T16:18:11.045Z,48.27
2019-01-23T16:21:00.559Z,44.67
2019-01-23T16:23:43.232Z,46.23
2019-01-23T16:26:32.803Z,45.20
2019-01-23T16:29:15.519Z,40.30
2019-01-23T16:32:05.197Z,39.17
2019-01-23T16:34:47.801Z,37.87
2019-01-23T16:37:30.425Z,41.03
2019-01-23T16:40:30.727Z,44.07
2019-01-23T16:43:20.374Z,41.47
2019-01-23T16:46:02.769Z,36.80
2019-01-23T16:52:19.673Z,44.57
2019-01-23T16:55:09.473Z,38.00
2019-01-23T16:58:00.165Z,41.97
2019-01-23T17:00:42.650Z,40.97
2019-01-23T17:06:26.100Z,46.10
2019-01-23T17:12:23.769Z,45.13
2019-01-23T17:18:15.415Z,44.77
2019-01-23T17:20:57.616Z,53.67
2019-01-23T17:23:47.176Z,51.87
2019-01-23T17:26:29.360Z,47.07
2019-01-23T17:29:18.882Z,52.03
2019-01-23T17:32:00.801Z,63.07
2019-01-23T17:37:58.876Z,57.20
2019-01-23T17:43:57.691Z,55.57
2019-01-23T17:46:41.599Z,54.30
2019-01-23T17:49:50.129Z,60.73
2019-01-23T17:52:32.161Z,52.90
2019-01-23T17:56:05.453Z,55.17
2019-01-23T17:58:47.191Z,58.70
2019-01-23T18:01:37.084Z,62.03
2019-01-23T18:04:18.872Z,63.53
2019-01-23T18:07:08.442Z,63.70
2019-01-23T18:09:51.566Z,53.67
2019-01-23T18:15:47.412Z,52.97
2019-01-23T18:18:36.985Z,64.37
2019-01-23T18:21:18.790Z,55.07
2019-01-23T18:24:27.732Z,58.67
2019-01-23T18:27:10.232Z,52.07
2019-01-23T18:32:48.976Z,53.10
2019-01-23T18:36:14.804Z,55.20
2019-01-23T18:39:42.518Z,48.47
2019-01-23T18:42:28.656Z,48.87
2019-01-23T18:45:56.309Z,50.53
2019-01-23T18:48:57.428Z,56.80
2019-01-23T18:52:10.094Z,51.03
2019-01-23T18:54:52.090Z,50.40
2019-01-23T18:57:41.752Z,52.97
2019-01-23T19:00:24.249Z,45.63
2019-01-23T19:06:22.905Z,50.57
2019-01-23T19:09:23.461Z,50.47
2019-01-23T19:12:13.613Z,50.07
2019-01-23T19:14:57.546Z,52.60
2019-01-23T19:17:47.085Z,52.87
2019-01-23T19:20:36.922Z,51.30
2019-01-23T19:23:26.613Z,60.87
2019-01-23T19:26:08.470Z,49.57
2019-01-23T19:28:58.298Z,52.73
2019-01-23T19:31:40.435Z,54.20
2019-01-23T19:34:30.356Z,53.93
2019-01-23T19:37:13.151Z,52.10
2019-01-23T19:46:13.100Z,52.30
2019-01-23T19:49:02.742Z,54.63
2019-01-23T19:51:44.810Z,52.87
2019-01-23T19:57:27.858Z,53.10
2019-01-23T20:00:36.524Z,54.80
2019-01-23T20:03:26.252Z,58.97
2019-01-23T20:06:15.851Z,51.57
2019-01-23T20:08:58.829Z,57.17
2019-01-23T20:11:48.550Z,56.40
2019-01-23T20:14:31.900Z,49.13
2019-01-23T20:18:01.316Z,53.33
2019-01-23T20:20:45.321Z,48.17
2019-01-23T20:23:34.921Z,49.73
2019-01-23T20:26:26.541Z,56.43
2019-01-23T20:29:16.671Z,54.23
2019-01-23T20:32:00.719Z,52.83
2019-01-23T20:37:52.710Z,48.33
2019-01-23T20:40:35.223Z,48.80
2019-01-23T20:43:25.012Z,49.60
2019-01-23T20:46:11.557Z,40.97
2019-01-23T20:49:01.112Z,47.33
2019-01-23T20:51:43.258Z,57.13
2019-01-23T20:54:33.194Z,52.60
2019-01-23T20:57:15.143Z,50.03
2019-01-23T21:03:26.043Z,49.50
2019-01-23T21:06:08.976Z,52.17
2019-01-23T21:08:58.664Z,48.50
2019-01-23T21:11:41.984Z,47.33
2019-01-23T21:14:31.516Z,53.00
2019-01-23T21:17:13.945Z,42.97
2019-01-23T21:20:22.403Z,46.40
2019-01-23T21:23:04.811Z,45.40
2019-01-23T21:25:54.352Z,47.33
2019-01-23T21:28:36.690Z,44.33
2019-01-23T21:31:26.202Z,42.37
2019-01-23T21:34:08.205Z,36.47
2019-01-23T21:36:57.727Z,41.10
2019-01-23T21:39:40.171Z,34.03
2019-01-23T21:42:29.833Z,45.30
2019-01-23T21:45:12.531Z,37.30
2019-01-23T21:48:02.541Z,42.27
2019-01-23T21:50:52.378Z,40.77
2019-01-23T21:53:35.207Z,42.00
2019-01-23T21:56:43.672Z,41.70
2019-01-23T21:59:26.035Z,39.97
2019-01-23T22:05:54.429Z,38.60
2019-01-23T22:08:36.255Z,42.57
2019-01-23T22:11:25.842Z,43.77
2019-01-23T22:14:08.482Z,44.70
2019-01-23T22:16:58.012Z,43.40
2019-01-23T22:19:40.270Z,40.33
2019-01-23T22:25:37.581Z,44.50
2019-01-23T22:28:27.144Z,40.40
2019-01-23T22:31:09.060Z,44.50
2019-01-23T22:37:06.824Z,39.07
2019-01-23T22:39:56.370Z,36.63
2019-01-23T22:46:01.232Z,40.47
2019-01-23T22:48:43.670Z,41.97
2019-01-23T22:51:33.211Z,37.10
2019-01-23T22:54:15.143Z,35.80
2019-01-23T22:57:04.706Z,43.83
2019-01-23T22:59:47.179Z,37.33
2019-01-23T23:02:36.729Z,40.50
2019-01-23T23:05:19.126Z,40.97
2019-01-23T23:08:08.893Z,45.70
2019-01-23T23:10:58.441Z,39.50
2019-01-23T23:13:47.963Z,42.17
2019-01-23T23:16:30.324Z,40.77
2019-01-23T23:19:19.943Z,41.07
2019-01-23T23:22:02.427Z,38.47
2019-01-23T23:24:52.087Z,37.33
2019-01-23T23:27:39.391Z,39.00
2019-01-23T23:33:33.056Z,43.97
2019-01-23T23:36:20.807Z,41.13
2019-01-23T23:47:49.119Z,39.77
2019-01-23T23:50:30.956Z,40.97
2019-01-23T23:56:29.026Z,38.30
2019-01-23T23:59:11.109Z,38.87
